Time;durP1;ratioP1;P1;durP2;ratioP2;P2;SDS_P1;SDS_P2;PMS_P1;PMS_P2;Temp;Humidity;BMP_temperature;BMP_pressure;BME280_temperature;BME280_humidity;BME280_pressure;Samples;Min_cycle;Max_cycle;Signal;HPM_P1;HPM_P2
2021/11/30 00:01:30;;;;;;;3.97;3.03;;;3.20;99.90;;;;;;6100076;23;20453;-80
2021/11/30 00:03:56;;;;;;;3.58;2.55;;;3.20;99.90;;;;;;6099289;23;20002;-81
2021/11/30 00:06:22;;;;;;;2.65;2.42;;;3.10;99.90;;;;;;6125675;23;20060;-81
2021/11/30 00:08:48;;;;;;;3.45;1.75;;;3.10;99.90;;;;;;6099573;23;20029;-81
2021/11/30 00:11:14;;;;;;;5.65;2.00;;;3.00;99.90;;;;;;6125109;23;20069;-81
2021/11/30 00:13:41;;;;;;;2.35;2.03;;;3.00;99.90;;;;;;6099493;23;20501;-81
2021/11/30 00:16:08;;;;;;;1.90;1.70;;;3.00;99.90;;;;;;6122766;23;20041;-81
2021/11/30 00:18:34;;;;;;;2.67;1.80;;;3.00;99.90;;;;;;6122369;23;20025;-80
2021/11/30 00:21:10;;;;;;;2.45;2.05;;;3.10;99.90;;;;;;6098011;23;20010;-81
2021/11/30 00:23:36;;;;;;;2.72;1.70;;;3.10;99.90;;;;;;6099101;23;20006;-80
2021/11/30 00:26:03;;;;;;;5.85;2.20;;;3.10;99.90;;;;;;6124647;23;20450;-80
2021/11/30 00:28:29;;;;;;;2.45;2.25;;;3.20;99.90;;;;;;6099428;23;20006;-81
2021/11/30 00:30:55;;;;;;;3.00;1.90;;;3.20;99.90;;;;;;6125349;23;20457;-82
2021/11/30 00:33:20;;;;;;;2.75;2.28;;;3.20;99.90;;;;;;6099334;23;20006;-82
2021/11/30 00:35:46;;;;;;;3.75;2.20;;;3.10;99.90;;;;;;6124929;23;20009;-82
2021/11/30 00:38:13;;;;;;;3.60;2.30;;;3.00;99.90;;;;;;6125082;23;20006;-82
2021/11/30 00:40:43;;;;;;;3.05;1.90;;;3.10;99.90;;;;;;6098615;23;20006;-82
2021/11/30 00:43:17;;;;;;;2.53;2.05;;;3.00;99.90;;;;;;6125072;23;20077;-81
2021/11/30 00:46:11;;;;;;;3.05;2.25;;;3.10;99.90;;;;;;6125383;23;20005;-82
2021/11/30 00:48:31;;;;;;;2.40;2.20;;;3.00;99.90;;;;;;6124021;23;20013;-81
2021/11/30 00:51:14;;;;;;;3.47;2.22;;;3.00;99.90;;;;;;6125118;23;19998;-82
2021/11/30 00:53:42;;;;;;;3.97;1.83;;;3.00;99.90;;;;;;6098450;23;20013;-81
2021/11/30 00:56:09;;;;;;;2.45;2.00;;;3.00;99.90;;;;;;6124528;23;20014;-81
2021/11/30 00:58:35;;;;;;;2.78;2.10;;;3.10;99.90;;;;;;6098705;23;20002;-81
2021/11/30 01:01:01;;;;;;;3.03;2.20;;;3.10;99.90;;;;;;6124959;23;20082;-81
2021/11/30 01:03:27;;;;;;;2.55;2.08;;;3.10;99.90;;;;;;6124856;23;20017;-81
2021/11/30 01:05:52;;;;;;;2.63;2.03;;;3.10;99.90;;;;;;6099037;23;20488;-81
2021/11/30 01:08:18;;;;;;;2.88;1.83;;;3.10;99.90;;;;;;6124886;23;20052;-81
2021/11/30 01:10:44;;;;;;;2.78;1.90;;;3.10;99.90;;;;;;6124520;23;20010;-82
2021/11/30 01:13:10;;;;;;;2.38;1.88;;;3.10;99.90;;;;;;6124758;23;19998;-82
2021/11/30 01:15:37;;;;;;;4.93;2.28;;;3.10;99.90;;;;;;6098901;23;20093;-82
2021/11/30 01:18:03;;;;;;;1.80;1.70;;;3.10;99.90;;;;;;6098938;23;20009;-82
2021/11/30 01:20:29;;;;;;;4.35;1.88;;;3.10;99.90;;;;;;6098607;23;20006;-81
2021/11/30 01:22:56;;;;;;;3.05;2.20;;;3.10;99.90;;;;;;6098659;23;20022;-82
2021/11/30 01:25:22;;;;;;;4.63;1.92;;;3.10;99.90;;;;;;6097820;23;20052;-81
2021/11/30 01:27:48;;;;;;;3.03;1.77;;;3.10;99.90;;;;;;6124663;23;20077;-81
2021/11/30 01:30:15;;;;;;;2.53;2.03;;;3.00;99.90;;;;;;6098831;23;20006;-81
2021/11/30 01:32:45;;;;;;;2.95;2.20;;;2.90;99.90;;;;;;6098646;23;20022;-81
2021/11/30 01:35:13;;;;;;;3.50;2.10;;;2.90;99.90;;;;;;6124515;23;20002;-81
2021/11/30 01:37:40;;;;;;;2.20;1.48;;;2.80;99.90;;;;;;6124749;23;20184;-81
2021/11/30 01:40:08;;;;;;;2.22;1.98;;;2.70;99.90;;;;;;6124145;23;20041;-81
2021/11/30 01:42:34;;;;;;;2.17;1.75;;;2.70;99.90;;;;;;6124818;23;20026;-81
2021/11/30 01:45:09;;;;;;;1.95;1.60;;;2.70;99.90;;;;;;6124679;23;20012;-81
2021/11/30 01:50:04;;;;;;;2.25;1.67;;;2.80;99.90;;;;;;6127243;23;20062;-81
2021/11/30 01:52:30;;;;;;;3.38;1.90;;;2.90;99.90;;;;;;6124793;23;20030;-83
2021/11/30 01:54:56;;;;;;;2.17;1.70;;;2.90;99.90;;;;;;6124695;23;20500;-82
2021/11/30 01:57:24;;;;;;;1.90;1.70;;;3.00;99.90;;;;;;6124235;23;20017;-83
2021/11/30 01:59:51;;;;;;;2.92;1.50;;;3.00;99.90;;;;;;6124668;23;20006;-82
2021/11/30 02:02:20;;;;;;;2.00;1.80;;;3.00;99.90;;;;;;6098325;23;20002;-82
2021/11/30 02:04:46;;;;;;;2.45;1.65;;;3.10;99.90;;;;;;6098598;23;20049;-82
2021/11/30 02:07:12;;;;;;;2.90;1.85;;;3.10;99.90;;;;;;6124255;23;20002;-81
2021/11/30 02:09:40;;;;;;;1.58;1.48;;;3.10;99.90;;;;;;6123970;23;20056;-80
2021/11/30 02:12:07;;;;;;;1.83;1.60;;;3.10;99.90;;;;;;6098144;23;20029;-81
2021/11/30 02:14:34;;;;;;;1.90;1.40;;;3.10;99.90;;;;;;6123959;23;20006;-81
2021/11/30 02:17:01;;;;;;;1.90;1.70;;;3.20;99.90;;;;;;6124365;23;20043;-81
2021/11/30 02:19:28;;;;;;;2.53;1.30;;;3.20;99.90;;;;;;6098270;23;20010;-83
2021/11/30 02:21:55;;;;;;;1.73;1.63;;;3.20;99.90;;;;;;6098133;23;20080;-81
2021/11/30 02:24:20;;;;;;;2.50;1.73;;;3.20;99.90;;;;;;6123995;23;20473;-81
2021/11/30 02:26:46;;;;;;;2.63;1.67;;;3.10;99.90;;;;;;6123945;23;20020;-81
2021/11/30 02:29:12;;;;;;;2.08;1.65;;;3.10;99.90;;;;;;6097855;23;20508;-81
2021/11/30 02:31:46;;;;;;;1.70;1.30;;;3.00;99.90;;;;;;6123967;23;20009;-81
2021/11/30 02:34:14;;;;;;;1.85;1.75;;;3.00;99.90;;;;;;6124076;23;20073;-81
2021/11/30 02:39:11;;;;;;;1.75;1.65;;;2.90;99.90;;;;;;6126604;23;20045;-80
2021/11/30 02:41:37;;;;;;;1.50;1.40;;;2.90;99.90;;;;;;6123746;23;20034;-81
2021/11/30 02:44:05;;;;;;;1.55;1.45;;;2.80;99.90;;;;;;6123933;23;19994;-82
2021/11/30 02:46:35;;;;;;;2.20;1.77;;;2.80;99.90;;;;;;6124232;23;20085;-81
2021/11/30 02:49:03;;;;;;;1.98;1.42;;;2.70;99.90;;;;;;6097988;23;20010;-81
2021/11/30 02:51:31;;;;;;;4.10;1.55;;;2.70;99.90;;;;;;6124035;23;20005;-81
2021/11/30 02:54:00;;;;;;;4.78;1.95;;;2.70;99.90;;;;;;6123778;23;20028;-82
2021/11/30 02:56:26;;;;;;;2.72;1.73;;;2.70;99.90;;;;;;6123908;23;20025;-82
2021/11/30 02:58:53;;;;;;;2.08;1.70;;;2.70;99.90;;;;;;6124340;23;20002;-83
2021/11/30 03:01:18;;;;;;;2.42;1.77;;;2.70;99.90;;;;;;6098313;23;20434;-83
2021/11/30 03:03:44;;;;;;;3.60;1.70;;;2.70;99.90;;;;;;6098800;23;20002;-83
2021/11/30 03:06:10;;;;;;;1.88;1.70;;;2.60;99.90;;;;;;6124334;23;20448;-83
2021/11/30 03:08:40;;;;;;;2.00;1.38;;;2.50;99.90;;;;;;6124398;23;20422;-83
2021/11/30 03:11:08;;;;;;;2.33;1.50;;;2.50;99.90;;;;;;6098115;23;20006;-84
2021/11/30 03:13:34;;;;;;;3.53;1.40;;;2.50;99.90;;;;;;6123813;23;20089;-82
2021/11/30 03:16:00;;;;;;;2.03;1.77;;;2.40;99.90;;;;;;6097531;23;20021;-82
2021/11/30 03:18:25;;;;;;;2.53;1.60;;;2.50;99.90;;;;;;6124513;23;20002;-83
2021/11/30 03:20:53;;;;;;;2.67;1.65;;;2.50;99.90;;;;;;6123662;23;20004;-82
2021/11/30 03:23:18;;;;;;;1.65;1.55;;;2.50;99.90;;;;;;6125713;23;20002;-82
2021/11/30 03:25:44;;;;;;;3.53;1.90;;;2.60;99.90;;;;;;6099322;23;20014;-82
2021/11/30 03:28:10;;;;;;;2.10;1.40;;;2.60;99.90;;;;;;6125993;23;20029;-82
2021/11/30 03:30:39;;;;;;;1.90;1.60;;;2.60;99.90;;;;;;6125817;23;20322;-82
2021/11/30 03:35:48;;;;;;;7.57;1.60;;;2.60;99.90;;;;;;6125492;23;20337;-83
2021/11/30 03:38:14;;;;;;;1.40;1.23;;;2.60;99.90;;;;;;6100222;23;20010;-83
2021/11/30 03:40:40;;;;;;;2.72;1.55;;;2.60;99.90;;;;;;6125211;23;20061;-82
2021/11/30 03:43:06;;;;;;;1.90;1.70;;;2.60;99.90;;;;;;6100158;23;20061;-81
2021/11/30 03:45:32;;;;;;;2.13;1.58;;;2.50;99.90;;;;;;6099528;23;20009;-83
2021/11/30 03:47:58;;;;;;;6.13;1.67;;;2.40;99.90;;;;;;6126075;23;20338;-82
2021/11/30 03:50:24;;;;;;;2.03;1.40;;;2.40;99.90;;;;;;6099513;23;20002;-83
2021/11/30 03:52:50;;;;;;;1.85;1.42;;;2.40;99.90;;;;;;6099631;23;20021;-83
2021/11/30 03:55:16;;;;;;;3.40;1.60;;;2.40;99.90;;;;;;6099362;23;20498;-82
2021/11/30 03:57:42;;;;;;;2.00;1.70;;;2.40;99.90;;;;;;6125663;23;20002;-82
2021/11/30 04:00:10;;;;;;;2.67;1.90;;;2.40;99.90;;;;;;6125461;23;20002;-82
2021/11/30 04:02:40;;;;;;;2.40;1.92;;;2.30;99.90;;;;;;6125466;23;20036;-82
2021/11/30 04:05:08;;;;;;;1.58;1.48;;;2.30;99.90;;;;;;6125352;23;20052;-82
2021/11/30 04:07:33;;;;;;;1.83;1.50;;;2.30;99.90;;;;;;6125634;23;19998;-83
2021/11/30 04:09:59;;;;;;;1.80;1.60;;;2.30;99.90;;;;;;6125389;23;20005;-83
2021/11/30 04:12:25;;;;;;;4.20;1.67;;;2.30;99.90;;;;;;6125277;23;20037;-82
2021/11/30 04:14:51;;;;;;;2.38;1.63;;;2.30;99.90;;;;;;6125043;23;19994;-81
2021/11/30 04:17:17;;;;;;;2.53;1.63;;;2.30;99.90;;;;;;6099977;23;20073;-82
2021/11/30 04:19:42;;;;;;;2.15;1.50;;;2.20;99.90;;;;;;6099612;23;19998;-83
2021/11/30 04:22:08;;;;;;;1.60;1.45;;;2.20;99.90;;;;;;6100021;23;20088;-84
2021/11/30 04:24:34;;;;;;;1.75;1.50;;;2.10;99.90;;;;;;6099517;23;20036;-85
2021/11/30 04:27:00;;;;;;;1.90;1.40;;;2.10;99.90;;;;;;6099696;23;20022;-86
2021/11/30 04:29:26;;;;;;;2.38;1.48;;;2.10;99.90;;;;;;6125930;23;19998;-85
2021/11/30 04:31:51;;;;;;;2.67;1.70;;;2.00;99.90;;;;;;6100295;23;20005;-85
2021/11/30 04:34:17;;;;;;;2.70;1.80;;;2.00;99.90;;;;;;6125434;23;20508;-86
2021/11/30 04:36:43;;;;;;;4.47;1.98;;;1.90;99.90;;;;;;6100136;23;20017;-86
2021/11/30 04:39:09;;;;;;;2.17;1.70;;;1.90;99.90;;;;;;6125479;23;20016;-85
2021/11/30 04:41:35;;;;;;;5.03;2.00;;;1.80;99.90;;;;;;6125072;23;19998;-82
2021/11/30 04:44:03;;;;;;;2.40;1.80;;;1.70;99.90;;;;;;6125032;23;20002;-81
2021/11/30 04:46:39;;;;;;;2.13;1.73;;;1.70;99.90;;;;;;6125491;23;20150;-82
2021/11/30 04:49:12;;;;;;;2.58;1.63;;;1.60;99.90;;;;;;6098961;23;20390;-82
2021/11/30 04:51:38;;;;;;;2.30;1.60;;;1.60;99.90;;;;;;6099386;23;20025;-79
2021/11/30 04:54:03;;;;;;;2.83;1.73;;;1.60;99.90;;;;;;6124766;23;20452;-82
2021/11/30 04:56:29;;;;;;;2.17;1.60;;;1.50;99.90;;;;;;6125048;23;20014;-81
2021/11/30 04:58:55;;;;;;;2.70;2.13;;;1.50;99.90;;;;;;6124915;23;20049;-81
2021/11/30 05:01:21;;;;;;;5.40;3.65;;;1.40;99.90;;;;;;6125158;23;20422;-81
2021/11/30 05:03:49;;;;;;;3.42;2.40;;;1.40;99.90;;;;;;6099002;23;20002;-81
2021/11/30 05:06:15;;;;;;;3.35;2.17;;;1.40;99.90;;;;;;6125158;23;20457;-81
2021/11/30 05:08:41;;;;;;;3.00;2.30;;;1.40;99.90;;;;;;6099002;23;20006;-82
2021/11/30 05:11:07;;;;;;;2.30;1.85;;;1.40;99.90;;;;;;6124765;23;20005;-82
2021/11/30 05:13:32;;;;;;;2.40;1.90;;;1.40;99.90;;;;;;6124877;23;20002;-82
2021/11/30 05:15:58;;;;;;;2.47;1.88;;;1.30;99.90;;;;;;6125153;23;20048;-82
2021/11/30 05:18:24;;;;;;;1.55;1.40;;;1.30;99.90;;;;;;6099040;23;20438;-82
2021/11/30 05:20:51;;;;;;;2.38;2.05;;;1.30;99.90;;;;;;6124734;23;20069;-81
2021/11/30 05:23:26;;;;;;;2.38;1.70;;;1.20;99.90;;;;;;6124381;23;20089;-82
2021/11/30 05:25:52;;;;;;;2.33;1.90;;;1.20;99.90;;;;;;6124158;23;20018;-81
2021/11/30 05:28:18;;;;;;;2.83;2.00;;;1.20;99.90;;;;;;6098740;23;20016;-81
2021/11/30 05:30:43;;;;;;;2.85;2.08;;;1.20;99.90;;;;;;6098693;23;20053;-82
2021/11/30 05:33:10;;;;;;;2.70;1.92;;;1.10;99.90;;;;;;6124402;23;20010;-82
2021/11/30 05:35:37;;;;;;;4.85;2.08;;;1.10;99.90;;;;;;6098794;23;20009;-82
2021/11/30 05:38:04;;;;;;;2.35;1.73;;;1.10;99.90;;;;;;6124714;23;20075;-82
2021/11/30 05:40:32;;;;;;;4.18;1.98;;;1.00;99.90;;;;;;6124767;23;20002;-83
2021/11/30 05:42:59;;;;;;;4.13;2.22;;;1.00;99.90;;;;;;6124571;23;20013;-81
2021/11/30 05:45:25;;;;;;;4.68;2.50;;;1.00;99.90;;;;;;6098226;23;20017;-81
2021/11/30 05:47:50;;;;;;;6.60;3.97;;;1.00;99.90;;;;;;6124432;23;20002;-81
2021/11/30 05:50:17;;;;;;;3.97;2.47;;;1.00;99.90;;;;;;6098319;23;20013;-81
2021/11/30 05:52:43;;;;;;;5.57;2.38;;;1.00;99.90;;;;;;6124738;23;20005;-82
2021/11/30 05:55:09;;;;;;;4.22;2.47;;;1.00;99.90;;;;;;6124284;23;20069;-82
2021/11/30 05:57:37;;;;;;;4.47;2.28;;;1.10;99.90;;;;;;6124143;23;20006;-81
2021/11/30 06:00:05;;;;;;;3.72;2.25;;;1.10;99.90;;;;;;6124262;23;19994;-82
2021/11/30 06:02:31;;;;;;;3.47;2.35;;;1.10;99.90;;;;;;6098498;23;20020;-84
2021/11/30 06:04:57;;;;;;;2.22;1.80;;;1.10;99.90;;;;;;6124895;23;20002;-86
2021/11/30 06:07:23;;;;;;;4.65;2.28;;;1.10;99.90;;;;;;6126373;23;20008;-86
2021/11/30 06:09:49;;;;;;;4.20;2.10;;;1.10;99.90;;;;;;6125458;23;20026;-86
2021/11/30 06:12:14;;;;;;;2.10;1.70;;;1.00;99.90;;;;;;6099491;23;20457;-85
2021/11/30 06:14:40;;;;;;;3.25;2.20;;;1.00;99.90;;;;;;6100413;23;20082;-86
2021/11/30 06:17:09;;;;;;;2.92;2.10;;;1.00;99.90;;;;;;6126521;23;20017;-86
2021/11/30 06:19:35;;;;;;;3.03;2.20;;;1.00;99.90;;;;;;6126709;23;20025;-87
2021/11/30 06:22:01;;;;;;;4.75;2.30;;;0.90;99.90;;;;;;6126712;23;20006;-87
2021/11/30 06:24:27;;;;;;;2.55;2.03;;;0.90;99.90;;;;;;6100125;23;20307;-83
2021/11/30 06:26:53;;;;;;;2.42;1.80;;;0.90;99.90;;;;;;6109157;23;20513;-88
2021/11/30 06:29:19;;;;;;;2.58;2.08;;;0.90;99.90;;;;;;6128706;23;20025;-85
2021/11/30 06:31:44;;;;;;;2.65;2.00;;;0.90;99.90;;;;;;6129106;23;20029;-91
2021/11/30 06:34:10;;;;;;;3.45;2.28;;;0.90;99.90;;;;;;6128541;23;20006;-89
2021/11/30 06:36:36;;;;;;;4.20;2.30;;;1.00;99.90;;;;;;6101908;23;20014;-85
2021/11/30 06:39:04;;;;;;;3.67;3.25;;;0.90;99.90;;;;;;6100048;23;20002;-85
2021/11/30 06:41:29;;;;;;;5.32;2.83;;;1.00;99.90;;;;;;6099307;23;20036;-86
2021/11/30 06:43:55;;;;;;;4.00;3.10;;;1.00;99.90;;;;;;6098385;23;20005;-83
2021/11/30 06:46:21;;;;;;;3.40;2.28;;;1.10;99.90;;;;;;6124917;23;20068;-84
2021/11/30 06:48:46;;;;;;;9.68;2.63;;;1.10;99.90;;;;;;6099197;23;20044;-84
2021/11/30 06:51:14;;;;;;;2.97;2.15;;;1.20;99.90;;;;;;6123984;23;20045;-82
2021/11/30 06:53:40;;;;;;;3.20;1.80;;;1.30;99.90;;;;;;6125325;23;20002;-86
2021/11/30 06:56:06;;;;;;;2.95;2.10;;;1.50;99.90;;;;;;6125168;23;20010;-86
2021/11/30 06:58:32;;;;;;;3.08;2.20;;;1.60;99.90;;;;;;6099159;23;19998;-80
2021/11/30 07:00:57;;;;;;;2.75;2.13;;;1.70;99.90;;;;;;6098296;23;20081;-83
2021/11/30 07:03:23;;;;;;;19.35;2.50;;;1.80;99.90;;;;;;6123682;23;19998;-82
2021/11/30 07:05:57;;;;;;;7.40;2.28;;;1.80;99.90;;;;;;6124139;23;20002;-85
2021/11/30 07:08:48;;;;;;;5.57;2.47;;;1.90;99.90;;;;;;6124229;23;20006;-82
2021/11/30 07:13:58;;;;;;;5.50;2.30;;;2.00;99.90;;;;;;6124044;23;20013;-84
2021/11/30 07:16:24;;;;;;;5.70;2.30;;;2.10;99.90;;;;;;6123718;23;20006;-83
2021/11/30 07:18:49;;;;;;;6.78;3.03;;;2.20;99.90;;;;;;6097292;23;20009;-83
2021/11/30 07:21:15;;;;;;;4.65;2.90;;;2.30;99.90;;;;;;6123226;23;20497;-84
2021/11/30 07:23:41;;;;;;;4.47;2.70;;;2.30;99.90;;;;;;6123190;23;20009;-82
2021/11/30 07:26:06;;;;;;;5.60;2.50;;;2.40;99.90;;;;;;6123051;23;20029;-84
2021/11/30 07:28:33;;;;;;;4.03;2.63;;;2.50;99.90;;;;;;6098465;23;20038;-82
2021/11/30 07:31:05;;;;;;;5.88;2.42;;;2.50;99.90;;;;;;6097905;23;20493;-83
2021/11/30 07:33:32;;;;;;;3.55;2.50;;;2.60;99.90;;;;;;6097901;23;20497;-84
2021/11/30 07:35:59;;;;;;;4.05;2.65;;;2.70;99.90;;;;;;6122623;23;20044;-84
2021/11/30 07:38:25;;;;;;;3.65;2.60;;;2.80;99.90;;;;;;6097576;23;20002;-82
2021/11/30 07:40:51;;;;;;;5.03;2.45;;;2.90;99.90;;;;;;6096741;23;20014;-82
2021/11/30 07:43:17;;;;;;;6.22;2.30;;;3.10;99.90;;;;;;6123295;23;20423;-84
2021/11/30 07:45:43;;;;;;;3.47;2.20;;;3.20;99.90;;;;;;6123255;23;20480;-84
2021/11/30 07:48:10;;;;;;;7.80;3.17;;;3.30;99.90;;;;;;6123070;23;20161;-84
2021/11/30 07:50:36;;;;;;;3.40;2.58;;;3.40;99.90;;;;;;6122620;23;20009;-83
2021/11/30 07:53:01;;;;;;;3.97;2.70;;;3.50;99.90;;;;;;6122909;23;20008;-85
2021/11/30 07:55:27;;;;;;;3.70;2.60;;;3.70;99.90;;;;;;6096430;23;20045;-83
2021/11/30 07:57:53;;;;;;;5.68;2.80;;;3.80;99.90;;;;;;6121887;23;20311;-84
2021/11/30 08:00:19;;;;;;;2.88;2.20;;;4.00;99.90;;;;;;6096140;23;20002;-83
2021/11/30 08:02:46;;;;;;;5.05;2.55;;;4.20;99.90;;;;;;6121308;23;20016;-84
2021/11/30 08:05:13;;;;;;;3.55;2.30;;;4.30;99.90;;;;;;6122978;23;19998;-84
2021/11/30 08:07:39;;;;;;;4.45;2.72;;;4.50;99.90;;;;;;6097072;23;20021;-82
2021/11/30 08:10:12;;;;;;;6.50;3.22;;;4.70;99.90;;;;;;6098924;23;20002;-82
2021/11/30 08:12:38;;;;;;;10.25;3.83;;;4.90;99.90;;;;;;6124523;23;20013;-83
2021/11/30 08:15:05;;;;;;;10.77;3.97;;;5.10;99.90;;;;;;6098784;23;19998;-84
2021/11/30 08:17:30;;;;;;;8.27;3.85;;;5.20;99.90;;;;;;6125009;23;20434;-84
2021/11/30 08:19:56;;;;;;;7.28;3.33;;;5.40;99.90;;;;;;6124701;23;20006;-84
2021/11/30 08:22:22;;;;;;;7.10;3.70;;;5.70;99.90;;;;;;6124376;23;20024;-84
2021/11/30 08:24:48;;;;;;;8.80;3.90;;;5.90;99.90;;;;;;6098450;23;20037;-83
2021/11/30 08:27:15;;;;;;;10.10;3.67;;;6.10;99.90;;;;;;6123552;23;20342;-83
2021/11/30 08:29:44;;;;;;;10.82;4.00;;;6.30;99.90;;;;;;6124642;23;20017;-83
2021/11/30 08:32:11;;;;;;;8.65;3.65;;;6.50;99.90;;;;;;6124475;23;20698;-87
2021/11/30 08:34:38;;;;;;;13.27;4.35;;;6.70;99.90;;;;;;6126479;23;20086;-87
2021/11/30 08:37:06;;;;;;;10.77;4.15;;;6.80;99.90;;;;;;6126503;23;20014;-87
2021/11/30 08:39:33;;;;;;;9.05;3.60;;;7.00;99.90;;;;;;6125761;23;20077;-87
2021/11/30 08:41:59;;;;;;;7.78;4.55;;;7.00;99.90;;;;;;6100048;23;20093;-88
2021/11/30 08:44:25;;;;;;;8.88;3.30;;;7.10;99.90;;;;;;6099135;23;20002;-89
2021/11/30 08:46:50;;;;;;;5.90;2.80;;;7.10;99.90;;;;;;6124697;23;20073;-88
2021/11/30 08:49:16;;;;;;;3.72;2.28;;;7.10;99.90;;;;;;6099509;23;20005;-88
2021/11/30 08:51:42;;;;;;;4.50;2.50;;;7.20;99.90;;;;;;6125498;23;20002;-88
2021/11/30 08:54:08;;;;;;;6.32;2.40;;;7.40;97.70;;;;;;6100619;23;20006;-88
2021/11/30 08:56:34;;;;;;;7.93;2.88;;;7.60;98.10;;;;;;6100830;23;20021;-86
2021/11/30 08:58:59;;;;;;;4.47;2.70;;;7.80;97.20;;;;;;6099927;23;20441;-87
2021/11/30 09:01:25;;;;;;;7.68;2.85;;;8.00;96.10;;;;;;6098692;23;20014;-89
2021/11/30 09:03:51;;;;;;;8.07;3.17;;;8.30;94.70;;;;;;6125196;23;20068;-86
2021/11/30 09:06:17;;;;;;;10.25;3.60;;;8.40;94.40;;;;;;6124959;23;20076;-83
2021/11/30 09:08:43;;;;;;;8.60;3.13;;;8.70;93.30;;;;;;6125232;23;20001;-88
2021/11/30 09:11:09;;;;;;;11.82;4.30;;;8.90;92.20;;;;;;6099074;23;20021;-87
2021/11/30 09:13:34;;;;;;;5.88;2.80;;;9.10;92.00;;;;;;6100485;23;20005;-86
2021/11/30 09:16:00;;;;;;;9.45;3.70;;;9.20;90.60;;;;;;6098774;23;20389;-85
2021/11/30 09:18:30;;;;;;;7.70;3.72;;;9.40;90.60;;;;;;6124844;23;20359;-88
2021/11/30 09:21:00;;;;;;;15.93;3.58;;;9.60;91.30;;;;;;6098256;23;20025;-87
2021/11/30 09:23:28;;;;;;;5.85;2.95;;;9.70;90.60;;;;;;6125199;23;20002;-88
2021/11/30 09:25:57;;;;;;;8.88;3.67;;;9.80;90.10;;;;;;6124748;23;20022;-87
2021/11/30 09:28:25;;;;;;;7.78;3.22;;;9.90;89.30;;;;;;6098439;23;20330;-88
2021/11/30 09:30:51;;;;;;;9.48;3.20;;;10.10;87.40;;;;;;6125260;23;20063;-85
2021/11/30 09:33:16;;;;;;;10.18;4.88;;;10.10;87.70;;;;;;6099287;23;20006;-86
2021/11/30 09:35:42;;;;;;;8.88;4.15;;;10.10;87.50;;;;;;6124689;23;20010;-86
2021/11/30 09:38:08;;;;;;;6.30;4.53;;;10.00;88.30;;;;;;6125469;23;20060;-87
2021/11/30 09:40:35;;;;;;;7.03;4.07;;;10.00;86.80;;;;;;6125500;23;20030;-84
2021/11/30 09:43:01;;;;;;;7.53;4.82;;;10.00;85.10;;;;;;6098168;23;20416;-85
2021/11/30 09:45:27;;;;;;;7.43;4.97;;;9.90;84.70;;;;;;6124725;23;20026;-87
2021/11/30 09:47:54;;;;;;;11.68;5.60;;;9.80;85.30;;;;;;6100803;23;20006;-86
2021/11/30 09:50:22;;;;;;;10.73;4.88;;;9.80;84.90;;;;;;6100363;23;20006;-85
2021/11/30 09:52:51;;;;;;;10.82;4.95;;;9.80;86.10;;;;;;6125382;23;20504;-84
2021/11/30 09:55:18;;;;;;;9.65;3.15;;;9.80;87.00;;;;;;6124310;23;20006;-84
2021/11/30 09:57:45;;;;;;;5.45;2.70;;;10.00;86.60;;;;;;6123968;23;20037;-86
2021/11/30 10:00:14;;;;;;;10.88;3.20;;;10.10;87.30;;;;;;6125232;23;20002;-85
2021/11/30 10:02:39;;;;;;;2.63;2.05;;;10.20;85.30;;;;;;6129715;23;20519;-85
2021/11/30 10:05:06;;;;;;;3.95;2.40;;;10.40;85.20;;;;;;6100624;23;20009;-85
2021/11/30 10:07:42;;;;;;;7.35;2.65;;;10.70;84.90;;;;;;6125485;23;20493;-85
2021/11/30 10:10:19;;;;;;;2.70;2.00;;;10.80;85.20;;;;;;6123564;23;20009;-86
2021/11/30 10:12:54;;;;;;;3.75;1.60;;;11.00;83.60;;;;;;6124083;23;20005;-84
2021/11/30 10:15:19;;;;;;;3.15;2.30;;;10.90;87.90;;;;;;6124909;23;20366;-87
2021/11/30 10:17:45;;;;;;;3.60;1.70;;;10.50;89.30;;;;;;6125480;23;20009;-85
2021/11/30 10:20:13;;;;;;;2.97;1.95;;;10.30;91.70;;;;;;6124193;23;20141;-85
2021/11/30 10:22:53;;;;;;;8.35;3.13;;;10.30;93.30;;;;;;6098698;23;20009;-84
2021/11/30 10:25:41;;;;;;;3.58;2.00;;;10.10;94.00;;;;;;6098661;23;20177;-86
2021/11/30 10:28:12;;;;;;;2.60;2.20;;;9.90;92.30;;;;;;6124190;23;20006;-87
2021/11/30 10:30:40;;;;;;;3.10;2.13;;;9.50;92.90;;;;;;6099742;23;20006;-89
2021/11/30 10:33:15;;;;;;;3.40;2.17;;;9.20;94.10;;;;;;6126002;23;20057;-88
2021/11/30 10:35:42;;;;;;;8.80;2.42;;;9.30;94.40;;;;;;6100307;23;20029;-88
2021/11/30 10:38:08;;;;;;;2.10;1.70;;;9.40;94.00;;;;;;6100695;23;20009;-87
2021/11/30 10:40:36;;;;;;;3.22;2.65;;;9.40;94.50;;;;;;6125327;23;20006;-87
2021/11/30 10:43:05;;;;;;;4.45;2.88;;;9.40;95.40;;;;;;6126450;23;20002;-85
2021/11/30 10:45:35;;;;;;;2.70;2.38;;;9.30;96.50;;;;;;6099444;23;20091;-86
2021/11/30 10:48:14;;;;;;;3.88;2.35;;;9.50;95.60;;;;;;6100350;23;20010;-88
2021/11/30 10:50:47;;;;;;;4.65;3.30;;;9.50;96.20;;;;;;6101128;23;20002;-85
2021/11/30 10:53:28;;;;;;;4.15;3.45;;;9.60;99.70;;;;;;6125183;23;20027;-85
2021/11/30 10:56:00;;;;;;;4.53;3.37;;;9.70;99.90;;;;;;6126476;23;20069;-84
2021/11/30 10:58:28;;;;;;;4.35;3.40;;;9.80;99.90;;;;;;6099819;23;20238;-85
2021/11/30 11:00:57;;;;;;;5.80;3.35;;;9.80;99.90;;;;;;6125027;23;20010;-84
2021/11/30 11:03:24;;;;;;;6.32;3.75;;;9.70;99.90;;;;;;6124654;23;20381;-86
2021/11/30 11:08:45;;;;;;;6.00;2.95;;;9.60;99.90;;;;;;6124463;23;20057;-85
2021/11/30 11:11:15;;;;;;;7.82;3.67;;;9.70;99.90;;;;;;6097094;23;20009;-81
2021/11/30 11:13:42;;;;;;;5.35;3.40;;;9.60;99.90;;;;;;6123878;23;20002;-84
2021/11/30 11:16:30;;;;;;;4.50;3.60;;;9.80;99.90;;;;;;6122875;23;20006;-84
2021/11/30 11:18:59;;;;;;;4.10;3.15;;;9.90;99.90;;;;;;6122217;23;20429;-84
2021/11/30 11:21:34;;;;;;;4.13;3.30;;;9.80;99.70;;;;;;6123213;23;20009;-86
2021/11/30 11:24:05;;;;;;;6.38;4.30;;;9.80;99.90;;;;;;6122651;23;20006;-84
2021/11/30 11:26:40;;;;;;;9.77;3.83;;;9.70;99.90;;;;;;6123884;23;20021;-84
2021/11/30 11:29:12;;;;;;;7.90;4.28;;;9.80;99.90;;;;;;6123981;23;20006;-83
2021/11/30 11:31:41;;;;;;;6.13;3.72;;;9.90;99.90;;;;;;6123669;23;20002;-85
2021/11/30 11:34:09;;;;;;;6.13;3.67;;;10.00;99.90;;;;;;6075347;23;20105;-83
2021/11/30 11:36:35;;;;;;;5.55;3.42;;;10.10;99.90;;;;;;6124962;23;20006;-85
2021/11/30 11:39:02;;;;;;;4.40;3.42;;;10.20;99.90;;;;;;6098580;23;20032;-86
2021/11/30 11:41:29;;;;;;;6.20;3.75;;;10.40;99.90;;;;;;6098285;23;20434;-85
2021/11/30 11:43:58;;;;;;;3.75;3.38;;;10.60;99.90;;;;;;6101118;23;20002;-83
2021/11/30 11:46:27;;;;;;;4.60;3.42;;;10.60;99.90;;;;;;6102007;23;20481;-81
2021/11/30 11:49:02;;;;;;;5.38;3.13;;;10.50;99.90;;;;;;6125883;23;20311;-88
2021/11/30 11:51:55;;;;;;;5.22;3.72;;;10.60;99.90;;;;;;6101318;23;20061;-83
2021/11/30 11:54:31;;;;;;;5.68;3.60;;;11.00;99.90;;;;;;6105263;23;20393;-83
2021/11/30 11:57:00;;;;;;;6.30;3.40;;;11.10;99.90;;;;;;6125705;23;20080;-82
2021/11/30 11:59:44;;;;;;;3.90;3.35;;;10.90;99.90;;;;;;6100062;23;20002;-83
2021/11/30 12:02:25;;;;;;;7.78;3.72;;;10.90;99.90;;;;;;6125601;23;20097;-81
2021/11/30 12:04:51;;;;;;;9.10;3.78;;;11.10;99.90;;;;;;6125516;23;20002;-82
2021/11/30 12:07:18;;;;;;;7.85;3.65;;;10.90;99.90;;;;;;6126390;23;19998;-82
2021/11/30 12:09:44;;;;;;;6.93;4.22;;;10.90;99.90;;;;;;6101484;23;20012;-80
2021/11/30 12:12:09;;;;;;;7.07;4.20;;;10.80;99.90;;;;;;6099154;23;20351;-85
2021/11/30 12:14:41;;;;;;;4.30;3.75;;;10.90;99.90;;;;;;6125559;23;20039;-79
2021/11/30 12:17:25;;;;;;;4.25;3.40;;;11.20;99.90;;;;;;6125262;23;20024;-84
2021/11/30 12:19:58;;;;;;;6.47;4.07;;;11.80;99.90;;;;;;6125800;23;20006;-82
2021/11/30 12:22:42;;;;;;;9.43;5.68;;;14.00;99.50;;;;;;6125273;23;20033;-82
2021/11/30 12:25:42;;;;;;;4.57;3.83;;;15.80;95.60;;;;;;6126177;23;20002;-82
2021/11/30 12:28:09;;;;;;;10.38;4.82;;;17.10;93.20;;;;;;6125940;23;20457;-83
2021/11/30 12:30:48;;;;;;;8.77;5.55;;;15.10;94.60;;;;;;6126682;23;20010;-83
2021/11/30 12:33:16;;;;;;;8.43;5.70;;;13.90;98.10;;;;;;6123849;23;20009;-82
2021/11/30 12:35:50;;;;;;;6.50;5.30;;;12.80;99.10;;;;;;6098147;23;20024;-85
2021/11/30 12:38:18;;;;;;;6.07;5.25;;;13.50;97.60;;;;;;6122549;23;20005;-82
2021/11/30 12:40:48;;;;;;;7.47;5.55;;;15.00;95.10;;;;;;6096953;23;20092;-82
2021/11/30 12:43:18;;;;;;;8.23;4.28;;;15.30;93.20;;;;;;6123433;23;20070;-84
2021/11/30 12:45:47;;;;;;;7.80;4.00;;;14.70;90.30;;;;;;6122359;23;20379;-85
2021/11/30 12:48:19;;;;;;;4.68;3.42;;;15.20;86.30;;;;;;6096453;23;20446;-85
2021/11/30 12:50:45;;;;;;;;;;;15.10;75.10;;;;;;6122958;23;19998;-83
2021/11/30 12:53:11;;;;;;;2.17;1.80;;;16.10;58.30;;;;;;6121784;23;19912;-84
2021/11/30 12:55:53;;;;;;;1.10;1.10;;;16.20;56.30;;;;;;6122716;23;20029;-83
2021/11/30 12:58:37;;;;;;;3.10;1.70;;;16.10;52.70;;;;;;6095871;23;20338;-84
2021/11/30 13:01:29;;;;;;;3.75;2.10;;;14.10;55.60;;;;;;6122296;23;20013;-85
2021/11/30 13:04:30;;;;;;;2.60;2.20;;;12.70;63.00;;;;;;6115642;23;20010;-84
2021/11/30 13:07:02;;;;;;;3.50;2.63;;;12.00;71.10;;;;;;6099699;23;20330;-85
2021/11/30 13:09:40;;;;;;;4.15;2.45;;;12.20;70.60;;;;;;6099024;23;20006;-84
2021/11/30 13:12:07;;;;;;;3.97;1.90;;;12.30;70.00;;;;;;6124610;23;19993;-83
2021/11/30 13:14:37;;;;;;;2.60;2.40;;;13.10;66.30;;;;;;6125653;23;20013;-82